createdAt,value
2023-02-23T00:01:52.962Z,6.72
2023-02-23T00:04:19.639Z,6.67
2023-02-23T00:06:46.333Z,6.59
2023-02-23T00:09:23.020Z,6.55
2023-02-23T00:11:54.914Z,6.50
2023-02-23T00:14:27.231Z,6.49
2023-02-23T00:16:57.393Z,6.45
2023-02-23T00:19:25.143Z,6.37
2023-02-23T00:21:52.937Z,6.26
2023-02-23T00:24:20.839Z,6.10
2023-02-23T00:26:48.393Z,6.12
2023-02-23T00:29:25.446Z,6.08
2023-02-23T00:31:52.952Z,6.06
2023-02-23T00:34:21.465Z,6.05
2023-02-23T00:36:54.492Z,5.98
2023-02-23T00:39:26.304Z,5.93
2023-02-23T00:41:55.323Z,5.87
2023-02-23T00:44:23.575Z,5.87
2023-02-23T00:46:51.914Z,5.85
2023-02-23T00:49:20.460Z,5.86
2023-02-23T00:51:47.510Z,5.80
2023-02-23T00:54:15.942Z,5.76
2023-02-23T00:56:42.979Z,5.76
2023-02-23T00:59:10.499Z,5.70
2023-02-23T01:01:38.456Z,5.67
2023-02-23T01:04:06.269Z,5.59
2023-02-23T01:06:33.239Z,5.56
2023-02-23T01:08:59.868Z,5.50
2023-02-23T01:11:31.078Z,5.47
2023-02-23T01:13:59.894Z,5.39
2023-02-23T01:16:29.533Z,5.34
2023-02-23T01:18:59.384Z,5.28
2023-02-23T01:21:29.531Z,5.23
2023-02-23T01:23:57.336Z,5.20
2023-02-23T01:26:37.460Z,5.22
2023-02-23T01:29:09.936Z,5.00
2023-02-23T01:31:39.122Z,5.03
2023-02-23T01:34:06.801Z,5.14
2023-02-23T01:36:36.124Z,5.21
2023-02-23T01:39:06.819Z,5.17
2023-02-23T01:41:35.103Z,5.19
2023-02-23T01:44:45.204Z,5.06
2023-02-23T01:47:14.209Z,5.10
2023-02-23T01:49:41.118Z,5.11
2023-02-23T01:52:11.079Z,5.11
2023-02-23T01:54:44.285Z,5.04
2023-02-23T01:57:14.535Z,5.13
2023-02-23T01:59:46.896Z,5.03
2023-02-23T02:02:14.440Z,5.01
2023-02-23T02:04:46.505Z,4.95
2023-02-23T02:07:16.103Z,4.95
2023-02-23T02:10:04.083Z,4.93
2023-02-23T02:12:30.686Z,4.96
2023-02-23T02:15:00.110Z,4.95
2023-02-23T02:18:09.336Z,4.94
2023-02-23T02:21:06.282Z,4.88
2023-02-23T02:24:10.318Z,4.94
2023-02-23T02:27:11.936Z,4.96
2023-02-23T02:30:13.037Z,4.94
2023-02-23T02:33:32.230Z,4.85
2023-02-23T02:36:48.190Z,4.84
2023-02-23T02:39:55.575Z,4.70
2023-02-23T02:42:40.130Z,4.68
2023-02-23T02:45:26.836Z,4.70
2023-02-23T02:48:31.218Z,4.73
2023-02-23T02:51:24.703Z,4.65
2023-02-23T02:54:26.216Z,4.53
2023-02-23T02:56:57.692Z,4.55
2023-02-23T02:59:43.246Z,4.53
2023-02-23T03:02:39.162Z,4.44
2023-02-23T03:06:06.114Z,4.44
2023-02-23T03:09:12.828Z,4.39
2023-02-23T03:12:02.052Z,4.36
2023-02-23T03:14:56.907Z,4.45
2023-02-23T03:17:56.820Z,4.42
2023-02-23T03:21:16.413Z,4.35
2023-02-23T03:24:38.516Z,4.28
2023-02-23T03:27:32.663Z,4.39
2023-02-23T03:30:23.631Z,4.41
2023-02-23T03:33:12.681Z,4.38
2023-02-23T03:36:10.203Z,4.48
2023-02-23T03:39:19.528Z,4.49
2023-02-23T03:42:07.252Z,4.48
2023-02-23T03:44:57.888Z,4.51
2023-02-23T03:47:46.298Z,4.46
2023-02-23T03:51:04.396Z,4.39
2023-02-23T03:54:00.204Z,4.24
2023-02-23T03:56:47.330Z,4.26
2023-02-23T03:59:37.081Z,4.27
2023-02-23T04:02:24.847Z,4.29
2023-02-23T04:05:12.058Z,4.23
2023-02-23T04:07:59.547Z,4.22
2023-02-23T04:10:48.395Z,4.22
2023-02-23T04:13:20.206Z,4.26
2023-02-23T04:16:10.834Z,4.23
2023-02-23T04:18:39.674Z,4.17
2023-02-23T04:21:07.582Z,4.10
2023-02-23T04:23:35.214Z,4.11
2023-02-23T04:26:01.845Z,4.00
2023-02-23T04:28:29.145Z,4.00
2023-02-23T04:30:55.902Z,3.98
2023-02-23T04:33:24.981Z,3.86
2023-02-23T04:35:54.005Z,3.92
2023-02-23T04:38:21.148Z,3.98
2023-02-23T04:40:49.544Z,3.91
2023-02-23T04:43:16.144Z,3.95
2023-02-23T04:45:43.993Z,4.02
2023-02-23T04:48:10.667Z,4.00
2023-02-23T04:50:37.372Z,3.88
2023-02-23T04:53:04.124Z,3.90
2023-02-23T04:55:31.096Z,3.95
2023-02-23T04:58:00.064Z,3.91
2023-02-23T05:00:27.414Z,3.86
2023-02-23T05:02:54.048Z,3.84
2023-02-23T05:05:21.453Z,3.98
2023-02-23T05:07:48.251Z,3.99
2023-02-23T05:10:14.891Z,4.01
2023-02-23T05:12:41.651Z,4.03
2023-02-23T05:15:11.109Z,4.13
2023-02-23T05:17:41.222Z,4.05
2023-02-23T05:20:10.581Z,4.10
2023-02-23T05:22:37.950Z,4.21
2023-02-23T05:25:05.746Z,4.18
2023-02-23T05:27:32.752Z,4.10
2023-02-23T05:29:59.437Z,4.14
2023-02-23T05:32:26.259Z,4.13
2023-02-23T05:34:53.027Z,4.20
2023-02-23T05:37:20.040Z,4.16
2023-02-23T05:39:47.621Z,4.20
2023-02-23T05:42:14.253Z,4.17
2023-02-23T05:44:40.932Z,4.06
2023-02-23T05:47:07.565Z,3.91
2023-02-23T05:49:34.196Z,3.79
2023-02-23T05:52:00.815Z,3.79
2023-02-23T05:54:27.508Z,3.70
2023-02-23T05:56:54.457Z,3.73
2023-02-23T05:59:21.178Z,3.74
2023-02-23T06:01:47.860Z,3.83
2023-02-23T06:04:14.510Z,3.81
2023-02-23T06:06:41.131Z,3.75
2023-02-23T06:09:07.746Z,3.91
2023-02-23T06:11:34.516Z,3.88
2023-02-23T06:14:01.128Z,3.91
2023-02-23T06:16:28.383Z,3.87
2023-02-23T06:18:55.299Z,3.85
2023-02-23T06:21:22.010Z,3.83
2023-02-23T06:23:48.678Z,3.87
2023-02-23T06:26:15.292Z,3.84
2023-02-23T06:28:41.961Z,3.70
2023-02-23T06:31:08.675Z,3.75
2023-02-23T06:33:35.419Z,3.86
2023-02-23T06:36:02.014Z,3.91
2023-02-23T06:38:29.343Z,4.03
2023-02-23T06:40:55.962Z,4.16
2023-02-23T06:43:23.413Z,4.18
2023-02-23T06:45:50.307Z,4.14
2023-02-23T06:48:17.626Z,4.10
2023-02-23T06:50:44.297Z,4.07
2023-02-23T06:53:10.883Z,4.19
2023-02-23T06:55:37.529Z,4.17
2023-02-23T06:58:04.973Z,4.24
2023-02-23T07:00:31.587Z,4.30
2023-02-23T07:02:59.788Z,4.19
2023-02-23T07:05:26.658Z,4.09
2023-02-23T07:07:53.235Z,4.05
2023-02-23T07:10:19.957Z,4.19
2023-02-23T07:12:46.970Z,4.41
2023-02-23T07:15:14.680Z,4.45
2023-02-23T07:17:41.221Z,4.45
2023-02-23T07:20:08.541Z,4.46
2023-02-23T07:22:35.149Z,4.49
2023-02-23T07:25:01.712Z,4.68
2023-02-23T07:27:28.458Z,4.88
2023-02-23T07:29:55.117Z,5.02
2023-02-23T07:32:22.039Z,5.15
2023-02-23T07:34:48.731Z,5.27
2023-02-23T07:37:17.214Z,5.36
2023-02-23T07:39:44.250Z,5.45
2023-02-23T07:42:10.915Z,5.44
2023-02-23T07:44:38.181Z,5.54
2023-02-23T07:47:05.196Z,5.54
2023-02-23T07:49:32.885Z,5.69
2023-02-23T07:51:59.637Z,5.77
2023-02-23T07:54:26.593Z,5.76
2023-02-23T07:56:53.485Z,5.80
2023-02-23T07:59:20.618Z,5.90
2023-02-23T08:01:47.240Z,6.07
2023-02-23T08:04:13.900Z,6.06
2023-02-23T08:06:40.538Z,6.12
2023-02-23T08:09:07.425Z,6.17
2023-02-23T08:11:34.204Z,6.20
2023-02-23T08:14:01.012Z,6.18
2023-02-23T08:16:31.923Z,6.21
2023-02-23T08:18:59.050Z,6.13
2023-02-23T08:21:29.632Z,6.29
2023-02-23T08:23:57.644Z,6.45
2023-02-23T08:26:25.375Z,6.46
2023-02-23T08:28:53.354Z,6.50
2023-02-23T08:31:24.052Z,6.54
2023-02-23T08:33:51.815Z,6.69
2023-02-23T08:36:18.921Z,6.74
2023-02-23T08:38:45.487Z,6.86
2023-02-23T08:41:12.432Z,7.03
2023-02-23T08:43:39.301Z,7.08
2023-02-23T08:46:07.146Z,7.15
2023-02-23T08:48:35.122Z,7.26
2023-02-23T08:51:01.837Z,7.35
2023-02-23T08:53:29.716Z,7.50
2023-02-23T08:56:00.753Z,7.47
2023-02-23T08:58:30.427Z,7.60
2023-02-23T09:00:57.829Z,7.70
2023-02-23T09:03:26.378Z,7.77
2023-02-23T09:05:53.229Z,7.83
2023-02-23T09:08:20.287Z,8.01
2023-02-23T09:10:47.094Z,8.05
2023-02-23T09:13:14.113Z,8.12
2023-02-23T09:15:41.642Z,8.13
2023-02-23T09:18:10.725Z,8.20
2023-02-23T09:20:37.310Z,8.25
2023-02-23T09:23:03.862Z,8.33
2023-02-23T09:25:31.580Z,8.37
2023-02-23T09:27:59.575Z,8.39
2023-02-23T09:30:27.711Z,8.43
2023-02-23T09:32:56.409Z,8.53
2023-02-23T09:35:24.801Z,8.53
2023-02-23T09:37:54.866Z,8.60
2023-02-23T09:40:28.048Z,8.70
2023-02-23T09:43:03.736Z,8.91
2023-02-23T09:45:43.688Z,9.09
2023-02-23T09:48:12.942Z,9.27
2023-02-23T09:50:42.039Z,9.42
2023-02-23T09:53:26.040Z,9.63
2023-02-23T09:55:57.434Z,9.77
2023-02-23T09:58:30.845Z,9.91
2023-02-23T10:01:35.971Z,9.96
2023-02-23T10:04:36.407Z,9.94
2023-02-23T10:07:33.093Z,9.79
2023-02-23T10:10:16.678Z,9.87
2023-02-23T10:12:46.168Z,10.12
2023-02-23T10:15:40.639Z,10.05
2023-02-23T10:18:50.282Z,10.03
2023-02-23T10:21:21.949Z,10.21
2023-02-23T10:24:22.539Z,10.35
2023-02-23T10:27:10.289Z,10.53
2023-02-23T10:29:52.744Z,10.55
2023-02-23T10:32:29.374Z,10.58
2023-02-23T10:34:56.780Z,10.58
2023-02-23T10:37:25.706Z,10.50
2023-02-23T10:39:53.391Z,10.52
2023-02-23T10:42:31.800Z,10.27
2023-02-23T10:44:59.435Z,10.32
2023-02-23T10:47:32.843Z,10.31
2023-02-23T10:49:59.393Z,10.39
2023-02-23T10:52:55.197Z,10.33
2023-02-23T10:55:28.669Z,10.28
2023-02-23T10:58:21.653Z,10.08
2023-02-23T11:00:56.198Z,10.09
2023-02-23T11:03:45.743Z,10.12
2023-02-23T11:06:36.047Z,10.01
2023-02-23T11:09:43.342Z,9.84
2023-02-23T11:12:25.512Z,9.95
2023-02-23T11:14:57.692Z,10.05
2023-02-23T11:17:36.641Z,10.16
2023-02-23T11:20:18.372Z,10.23
2023-02-23T11:22:45.703Z,10.36
2023-02-23T11:25:22.030Z,10.54
2023-02-23T11:27:53.836Z,10.77
2023-02-23T11:30:25.245Z,10.89
2023-02-23T11:32:56.411Z,11.01
2023-02-23T11:35:29.291Z,11.11
2023-02-23T11:37:56.245Z,11.11
2023-02-23T11:40:26.391Z,11.26
2023-02-23T11:43:14.703Z,11.26
2023-02-23T11:45:50.559Z,11.24
2023-02-23T11:48:22.461Z,11.29
2023-02-23T11:50:50.392Z,11.29
2023-02-23T11:53:21.607Z,11.37
2023-02-23T11:55:50.972Z,11.63
2023-02-23T11:58:35.803Z,11.70
2023-02-23T12:01:14.435Z,11.80
2023-02-23T12:03:48.209Z,11.94
2023-02-23T12:06:34.821Z,11.90
2023-02-23T12:09:29.616Z,11.74
2023-02-23T12:12:06.815Z,11.54
2023-02-23T12:14:56.405Z,11.53
2023-02-23T12:17:29.758Z,11.40
2023-02-23T12:20:06.692Z,11.46
2023-02-23T12:22:43.032Z,11.27
2023-02-23T12:25:22.971Z,11.27
2023-02-23T12:28:18.557Z,11.41
2023-02-23T12:30:55.073Z,11.41
2023-02-23T12:33:33.964Z,11.47
2023-02-23T12:36:20.829Z,11.49
2023-02-23T12:39:04.721Z,11.52
2023-02-23T12:41:43.225Z,11.48
2023-02-23T12:44:42.994Z,11.46
2023-02-23T12:47:21.606Z,11.41
2023-02-23T12:49:57.398Z,11.46
2023-02-23T12:52:33.659Z,11.36
2023-02-23T12:55:01.589Z,10.99
2023-02-23T12:58:07.975Z,10.87
2023-02-23T13:00:59.156Z,10.79
2023-02-23T13:03:38.425Z,10.90
2023-02-23T13:06:36.749Z,10.98
2023-02-23T13:09:20.024Z,11.01
2023-02-23T13:12:15.186Z,11.05
2023-02-23T13:14:44.949Z,10.97
2023-02-23T13:17:33.133Z,10.94
2023-02-23T13:20:24.691Z,10.99
2023-02-23T13:23:28.071Z,10.98
2023-02-23T13:25:58.034Z,10.96
2023-02-23T13:29:07.877Z,10.96
2023-02-23T13:31:37.114Z,11.03
2023-02-23T13:34:09.123Z,11.19
2023-02-23T13:36:36.832Z,11.24
2023-02-23T13:39:32.340Z,11.38
2023-02-23T13:42:20.286Z,11.43
2023-02-23T13:45:07.117Z,11.49
2023-02-23T13:47:47.106Z,11.55
2023-02-23T13:50:36.035Z,11.56
2023-02-23T13:53:06.883Z,11.59
2023-02-23T13:55:51.597Z,11.66
2023-02-23T13:58:28.340Z,11.64
2023-02-23T14:01:05.998Z,11.78
2023-02-23T14:03:39.875Z,11.78
2023-02-23T14:06:07.908Z,11.77
2023-02-23T14:08:38.570Z,11.80
2023-02-23T14:11:06.555Z,11.80
2023-02-23T14:13:39.208Z,11.66
2023-02-23T14:16:26.468Z,11.57
2023-02-23T14:19:10.618Z,11.57
2023-02-23T14:22:11.454Z,11.45
2023-02-23T14:24:38.284Z,11.47
2023-02-23T14:27:10.732Z,11.45
2023-02-23T14:29:41.885Z,11.45
2023-02-23T14:32:31.805Z,11.46
2023-02-23T14:35:02.769Z,11.48
2023-02-23T14:37:42.688Z,11.43
2023-02-23T14:40:29.629Z,11.38
2023-02-23T14:43:01.263Z,11.26
2023-02-23T14:45:38.870Z,11.18
2023-02-23T14:48:12.838Z,11.10
2023-02-23T14:50:41.343Z,11.05
2023-02-23T14:53:18.521Z,10.98
2023-02-23T14:55:45.652Z,10.92
2023-02-23T14:58:33.421Z,10.81
2023-02-23T15:01:00.211Z,10.78
2023-02-23T15:03:26.853Z,10.72
2023-02-23T15:05:57.486Z,10.63
2023-02-23T15:08:27.235Z,10.54
2023-02-23T15:11:03.503Z,10.57
2023-02-23T15:13:40.217Z,10.54
2023-02-23T15:16:09.871Z,10.45
2023-02-23T15:18:41.793Z,10.44
2023-02-23T15:21:16.280Z,10.44
2023-02-23T15:23:49.164Z,10.44
2023-02-23T15:26:25.144Z,10.44
2023-02-23T15:28:52.012Z,10.43
2023-02-23T15:31:20.016Z,10.31
2023-02-23T15:33:50.696Z,10.24
2023-02-23T15:36:31.459Z,10.32
2023-02-23T15:39:00.605Z,10.22
2023-02-23T15:41:36.788Z,10.24
2023-02-23T15:44:11.687Z,10.31
2023-02-23T15:46:38.928Z,10.37
2023-02-23T15:49:06.929Z,10.29
2023-02-23T15:51:48.877Z,10.22
2023-02-23T15:54:18.306Z,10.16
2023-02-23T15:56:49.795Z,10.15
2023-02-23T15:59:26.455Z,10.15
2023-02-23T16:01:54.730Z,10.15
2023-02-23T16:04:28.008Z,10.10
2023-02-23T16:07:15.062Z,10.07
2023-02-23T16:09:49.670Z,10.01
2023-02-23T16:12:23.526Z,10.00
2023-02-23T16:14:55.121Z,9.98
2023-02-23T16:17:27.508Z,9.96
2023-02-23T16:20:14.154Z,10.02
2023-02-23T16:22:42.443Z,9.95
2023-02-23T16:25:14.457Z,9.95
2023-02-23T16:27:43.276Z,9.92
2023-02-23T16:30:34.364Z,9.92
2023-02-23T16:33:20.809Z,9.92
2023-02-23T16:35:53.559Z,9.86
2023-02-23T16:38:38.459Z,9.85
2023-02-23T16:41:10.289Z,9.83
2023-02-23T16:43:37.404Z,9.84
2023-02-23T16:46:04.192Z,9.83
2023-02-23T16:48:30.837Z,9.84
2023-02-23T16:50:57.639Z,9.82
2023-02-23T16:53:24.439Z,9.77
2023-02-23T16:55:53.917Z,9.78
2023-02-23T16:58:24.801Z,9.80
2023-02-23T17:00:52.361Z,9.73
2023-02-23T17:03:23.767Z,9.77
2023-02-23T17:05:51.206Z,9.75
2023-02-23T17:08:18.121Z,9.70
2023-02-23T17:10:48.122Z,9.60
2023-02-23T17:13:21.264Z,9.59
2023-02-23T17:15:54.047Z,9.62
2023-02-23T17:20:56.480Z,9.58
2023-02-23T17:23:29.019Z,9.57
2023-02-23T17:25:58.714Z,9.59
2023-02-23T17:28:25.897Z,9.56
2023-02-23T17:30:52.588Z,9.52
2023-02-23T17:33:19.561Z,9.46
2023-02-23T17:35:46.827Z,9.44
2023-02-23T17:38:14.938Z,9.39
2023-02-23T17:40:41.591Z,9.36
2023-02-23T17:43:08.263Z,9.35
2023-02-23T17:45:34.922Z,9.27
2023-02-23T17:48:01.804Z,9.20
2023-02-23T17:50:28.865Z,9.22
2023-02-23T17:52:55.946Z,9.18
2023-02-23T17:55:23.427Z,9.18
2023-02-23T17:57:50.167Z,9.14
2023-02-23T18:00:19.016Z,9.18
2023-02-23T18:02:46.015Z,9.16
2023-02-23T18:05:13.823Z,9.17
2023-02-23T18:07:40.524Z,9.14
2023-02-23T18:10:08.646Z,9.20
2023-02-23T18:12:35.360Z,9.19
2023-02-23T18:15:02.070Z,9.20
2023-02-23T18:17:28.808Z,9.18
2023-02-23T18:19:55.425Z,9.19
2023-02-23T18:22:22.016Z,9.17
2023-02-23T18:24:48.670Z,9.17
2023-02-23T18:27:15.291Z,9.10
2023-02-23T18:29:41.949Z,9.05
2023-02-23T18:32:08.894Z,9.03
2023-02-23T18:34:35.664Z,9.00
2023-02-23T18:37:03.509Z,8.97
2023-02-23T18:39:31.561Z,8.93
2023-02-23T18:41:59.817Z,8.95
2023-02-23T18:44:27.057Z,8.95
2023-02-23T18:46:54.858Z,8.87
2023-02-23T18:49:24.435Z,8.81
2023-02-23T18:51:51.574Z,8.80
2023-02-23T18:54:18.889Z,8.83
2023-02-23T18:56:47.296Z,8.85
2023-02-23T18:59:14.760Z,8.85
2023-02-23T19:01:46.571Z,8.84
2023-02-23T19:04:13.721Z,8.87
2023-02-23T19:06:43.762Z,8.86
2023-02-23T19:09:13.355Z,8.85
2023-02-23T19:11:42.696Z,8.86
2023-02-23T19:14:13.691Z,8.84
2023-02-23T19:16:41.229Z,8.86
2023-02-23T19:19:08.961Z,8.86
2023-02-23T19:21:36.298Z,8.85
2023-02-23T19:24:03.565Z,8.82
2023-02-23T19:26:31.340Z,8.81
2023-02-23T19:28:58.676Z,8.84
2023-02-23T19:31:26.397Z,8.86
2023-02-23T19:33:55.980Z,8.86
2023-02-23T19:36:29.568Z,8.85
2023-02-23T19:39:10.740Z,8.86
2023-02-23T19:41:39.397Z,8.80
2023-02-23T19:44:06.759Z,8.75
2023-02-23T19:46:33.590Z,8.67
2023-02-23T19:49:00.730Z,8.68
2023-02-23T19:51:27.524Z,8.63
2023-02-23T19:53:55.153Z,8.61
2023-02-23T19:56:24.588Z,8.55
2023-02-23T19:58:52.170Z,8.55
2023-02-23T20:01:21.202Z,8.54
2023-02-23T20:03:55.211Z,8.54
2023-02-23T20:06:24.446Z,8.49
2023-02-23T20:08:52.545Z,8.44
2023-02-23T20:11:19.846Z,8.47
2023-02-23T20:13:47.238Z,8.46
2023-02-23T20:16:15.199Z,8.44
2023-02-23T20:18:43.599Z,8.45
2023-02-23T20:21:19.349Z,8.44
2023-02-23T20:23:47.134Z,8.44
2023-02-23T20:26:23.554Z,8.48
2023-02-23T20:28:51.206Z,8.51
2023-02-23T20:31:21.204Z,8.52
2023-02-23T20:33:51.198Z,8.48
2023-02-23T20:36:20.028Z,8.52
2023-02-23T20:38:47.132Z,8.51
2023-02-23T20:41:13.842Z,8.52
2023-02-23T20:43:40.798Z,8.49
2023-02-23T20:46:07.629Z,8.47
2023-02-23T20:48:35.078Z,8.41
2023-02-23T20:51:02.143Z,8.38
2023-02-23T20:53:29.899Z,8.38
2023-02-23T20:55:56.532Z,8.31
2023-02-23T20:58:26.281Z,8.37
2023-02-23T21:01:02.700Z,8.37
2023-02-23T21:03:29.446Z,8.32
2023-02-23T21:05:56.224Z,8.37
2023-02-23T21:08:22.877Z,8.36
2023-02-23T21:10:50.263Z,8.39
2023-02-23T21:13:17.902Z,8.37
2023-02-23T21:15:45.758Z,8.38
2023-02-23T21:18:12.588Z,8.33
2023-02-23T21:20:40.273Z,8.25
2023-02-23T21:23:07.191Z,8.27
2023-02-23T21:25:33.899Z,8.32
2023-02-23T21:28:01.904Z,8.31
2023-02-23T21:30:29.270Z,8.29
2023-02-23T21:32:57.518Z,8.18
2023-02-23T21:35:24.304Z,8.19
2023-02-23T21:37:52.063Z,8.12
2023-02-23T21:40:20.822Z,8.05
2023-02-23T21:42:48.400Z,8.03
2023-02-23T21:45:15.728Z,7.96
2023-02-23T21:47:44.681Z,7.87
2023-02-23T21:50:14.482Z,7.82
2023-02-23T21:52:45.331Z,7.90
2023-02-23T21:55:23.448Z,7.98
2023-02-23T21:57:51.841Z,8.03
2023-02-23T22:00:19.066Z,8.06
2023-02-23T22:02:46.717Z,8.08
2023-02-23T22:05:15.856Z,8.09
2023-02-23T22:07:51.429Z,8.14
2023-02-23T22:10:19.948Z,8.14
2023-02-23T22:12:46.845Z,8.15
2023-02-23T22:15:15.795Z,8.14
2023-02-23T22:17:43.672Z,8.08
2023-02-23T22:20:11.298Z,8.07
2023-02-23T22:22:37.984Z,8.04
2023-02-23T22:25:07.318Z,8.03
2023-02-23T22:27:33.957Z,8.04
2023-02-23T22:30:01.859Z,8.02
2023-02-23T22:32:32.940Z,8.07
2023-02-23T22:35:00.870Z,8.06
2023-02-23T22:37:32.072Z,8.05
2023-02-23T22:40:08.272Z,8.04
2023-02-23T22:42:35.366Z,8.03
2023-02-23T22:45:02.032Z,8.04
2023-02-23T22:47:28.851Z,8.06
2023-02-23T22:49:55.460Z,8.09
2023-02-23T22:52:22.090Z,8.14
2023-02-23T22:54:51.222Z,8.12
2023-02-23T22:57:17.918Z,8.19
2023-02-23T22:59:54.655Z,8.12
2023-02-23T23:02:22.711Z,8.13
2023-02-23T23:04:49.367Z,8.09
2023-02-23T23:07:16.162Z,8.05
2023-02-23T23:09:42.754Z,8.07
2023-02-23T23:12:11.850Z,8.08
2023-02-23T23:14:38.881Z,8.11
2023-02-23T23:17:05.524Z,8.14
2023-02-23T23:19:38.835Z,8.08
2023-02-23T23:22:06.376Z,8.09
2023-02-23T23:24:33.045Z,8.13
2023-02-23T23:27:00.923Z,8.11
2023-02-23T23:29:32.445Z,8.15
2023-02-23T23:32:00.969Z,8.11
2023-02-23T23:34:27.631Z,8.11
2023-02-23T23:36:55.409Z,8.11
2023-02-23T23:39:25.836Z,8.01
2023-02-23T23:41:53.546Z,8.07
2023-02-23T23:44:22.957Z,8.11
2023-02-23T23:46:53.273Z,8.06
2023-02-23T23:49:22.411Z,8.09
2023-02-23T23:51:51.933Z,8.09
2023-02-23T23:54:25.032Z,8.07
2023-02-23T23:56:51.906Z,8.04
2023-02-23T23:59:21.777Z,7.99
